sensor_id;sensor_type;location;lat;lon;timestamp;temperature;humidity
20081;DHT22;10200;49.232;9.222;2023-02-03T00:02:08;7.60;99.90
20081;DHT22;10200;49.232;9.222;2023-02-03T00:04:33;7.60;99.90
20081;DHT22;10200;49.232;9.222;2023-02-03T00:06:59;7.60;99.90
20081;DHT22;10200;49.232;9.222;2023-02-03T00:09:24;7.50;99.90
20081;DHT22;10200;49.232;9.222;2023-02-03T00:11:50;7.50;99.90
20081;DHT22;10200;49.232;9.222;2023-02-03T00:14:16;7.60;99.90
20081;DHT22;10200;49.232;9.222;2023-02-03T00:16:41;7.60;99.90
20081;DHT22;10200;49.232;9.222;2023-02-03T00:19:07;7.60;99.90
20081;DHT22;10200;49.232;9.222;2023-02-03T00:21:32;7.60;99.90
20081;DHT22;10200;49.232;9.222;2023-02-03T00:23:58;7.60;99.90
20081;DHT22;10200;49.232;9.222;2023-02-03T00:26:23;7.50;99.90
20081;DHT22;10200;49.232;9.222;2023-02-03T00:28:50;7.60;99.90
20081;DHT22;10200;49.232;9.222;2023-02-03T00:31:18;7.50;99.90
20081;DHT22;10200;49.232;9.222;2023-02-03T00:33:44;7.60;99.90
20081;DHT22;10200;49.232;9.222;2023-02-03T00:36:10;7.50;99.90
20081;DHT22;10200;49.232;9.222;2023-02-03T00:38:35;7.60;99.90
20081;DHT22;10200;49.232;9.222;2023-02-03T00:41:01;7.60;99.90
20081;DHT22;10200;49.232;9.222;2023-02-03T00:43:27;7.50;99.90
20081;DHT22;10200;49.232;9.222;2023-02-03T00:45:53;7.50;99.90
20081;DHT22;10200;49.232;9.222;2023-02-03T00:48:18;7.50;99.90
20081;DHT22;10200;49.232;9.222;2023-02-03T00:50:48;7.50;99.90
20081;DHT22;10200;49.232;9.222;2023-02-03T00:53:13;7.40;99.90
20081;DHT22;10200;49.232;9.222;2023-02-03T00:55:41;7.50;99.90
20081;DHT22;10200;49.232;9.222;2023-02-03T00:58:07;7.50;99.90
20081;DHT22;10200;49.232;9.222;2023-02-03T01:00:32;7.50;99.90
20081;DHT22;10200;49.232;9.222;2023-02-03T01:02:58;7.50;99.90
20081;DHT22;10200;49.232;9.222;2023-02-03T01:05:23;7.40;99.90
20081;DHT22;10200;49.232;9.222;2023-02-03T01:07:49;7.50;99.90
20081;DHT22;10200;49.232;9.222;2023-02-03T01:10:15;7.50;99.90
20081;DHT22;10200;49.232;9.222;2023-02-03T01:12:40;7.50;99.90
20081;DHT22;10200;49.232;9.222;2023-02-03T01:15:06;7.50;99.90
20081;DHT22;10200;49.232;9.222;2023-02-03T01:17:32;7.50;99.90
20081;DHT22;10200;49.232;9.222;2023-02-03T01:19:57;7.50;99.90
20081;DHT22;10200;49.232;9.222;2023-02-03T01:22:23;7.50;99.90
20081;DHT22;10200;49.232;9.222;2023-02-03T01:24:48;7.50;99.90
20081;DHT22;10200;49.232;9.222;2023-02-03T01:27:14;7.60;99.90
20081;DHT22;10200;49.232;9.222;2023-02-03T01:29:40;7.60;99.90
20081;DHT22;10200;49.232;9.222;2023-02-03T01:32:05;7.50;99.90
20081;DHT22;10200;49.232;9.222;2023-02-03T01:34:31;7.60;99.90
20081;DHT22;10200;49.232;9.222;2023-02-03T01:36:56;7.60;99.90
20081;DHT22;10200;49.232;9.222;2023-02-03T01:39:22;7.60;99.90
20081;DHT22;10200;49.232;9.222;2023-02-03T01:41:47;7.60;99.90
20081;DHT22;10200;49.232;9.222;2023-02-03T01:44:42;7.50;99.90
20081;DHT22;10200;49.232;9.222;2023-02-03T01:50:16;7.50;99.90
20081;DHT22;10200;49.232;9.222;2023-02-03T01:52:45;7.60;99.90
20081;DHT22;10200;49.232;9.222;2023-02-03T01:55:16;7.60;99.90
20081;DHT22;10200;49.232;9.222;2023-02-03T01:57:54;7.60;99.90
20081;DHT22;10200;49.232;9.222;2023-02-03T02:00:20;7.60;99.90
20081;DHT22;10200;49.232;9.222;2023-02-03T02:02:47;7.60;99.90
20081;DHT22;10200;49.232;9.222;2023-02-03T02:05:18;7.70;99.90
20081;DHT22;10200;49.232;9.222;2023-02-03T02:07:46;7.60;99.90
20081;DHT22;10200;49.232;9.222;2023-02-03T02:10:12;7.50;99.90
20081;DHT22;10200;49.232;9.222;2023-02-03T02:12:38;7.60;99.90
20081;DHT22;10200;49.232;9.222;2023-02-03T02:15:04;7.60;99.90
20081;DHT22;10200;49.232;9.222;2023-02-03T02:26:27;7.50;99.90
20081;DHT22;10200;49.232;9.222;2023-02-03T02:35:02;7.50;99.90
20081;DHT22;10200;49.232;9.222;2023-02-03T02:40:24;7.50;99.90
20081;DHT22;10200;49.232;9.222;2023-02-03T02:43:11;7.40;99.90
20081;DHT22;10200;49.232;9.222;2023-02-03T02:45:53;7.50;99.90
20081;DHT22;10200;49.232;9.222;2023-02-03T02:48:25;7.40;99.90
20081;DHT22;10200;49.232;9.222;2023-02-03T02:50:55;7.40;99.90
20081;DHT22;10200;49.232;9.222;2023-02-03T02:53:25;7.40;99.90
20081;DHT22;10200;49.232;9.222;2023-02-03T02:55:51;7.40;99.90
20081;DHT22;10200;49.232;9.222;2023-02-03T02:58:18;7.40;99.90
20081;DHT22;10200;49.232;9.222;2023-02-03T03:00:45;7.40;99.90
20081;DHT22;10200;49.232;9.222;2023-02-03T03:03:21;7.40;99.90
20081;DHT22;10200;49.232;9.222;2023-02-03T03:08:26;7.40;99.90
20081;DHT22;10200;49.232;9.222;2023-02-03T03:10:54;7.50;99.90
20081;DHT22;10200;49.232;9.222;2023-02-03T03:13:24;7.40;99.90
20081;DHT22;10200;49.232;9.222;2023-02-03T03:15:53;7.40;99.90
20081;DHT22;10200;49.232;9.222;2023-02-03T03:18:29;7.40;99.90
20081;DHT22;10200;49.232;9.222;2023-02-03T03:20:58;7.40;99.90
20081;DHT22;10200;49.232;9.222;2023-02-03T03:23:33;7.40;99.90
20081;DHT22;10200;49.232;9.222;2023-02-03T03:26:15;7.40;99.90
20081;DHT22;10200;49.232;9.222;2023-02-03T03:28:57;7.40;99.90
20081;DHT22;10200;49.232;9.222;2023-02-03T03:31:25;7.40;99.90
20081;DHT22;10200;49.232;9.222;2023-02-03T03:33:51;7.40;99.90
20081;DHT22;10200;49.232;9.222;2023-02-03T03:36:23;7.40;99.90
20081;DHT22;10200;49.232;9.222;2023-02-03T03:38:56;7.40;99.90
20081;DHT22;10200;49.232;9.222;2023-02-03T03:41:36;7.40;99.90
20081;DHT22;10200;49.232;9.222;2023-02-03T03:44:07;7.30;99.90
20081;DHT22;10200;49.232;9.222;2023-02-03T03:46:44;7.30;99.90
20081;DHT22;10200;49.232;9.222;2023-02-03T03:49:11;7.40;99.90
20081;DHT22;10200;49.232;9.222;2023-02-03T03:51:43;7.30;99.90
20081;DHT22;10200;49.232;9.222;2023-02-03T03:54:14;7.30;99.90
20081;DHT22;10200;49.232;9.222;2023-02-03T03:56:53;7.80;99.90
20081;DHT22;10200;49.232;9.222;2023-02-03T03:59:23;7.30;99.90
20081;DHT22;10200;49.232;9.222;2023-02-03T04:01:50;7.30;99.90
20081;DHT22;10200;49.232;9.222;2023-02-03T04:04:16;7.30;99.90
20081;DHT22;10200;49.232;9.222;2023-02-03T04:06:42;7.30;99.90
20081;DHT22;10200;49.232;9.222;2023-02-03T04:09:08;7.30;99.90
20081;DHT22;10200;49.232;9.222;2023-02-03T04:11:33;7.20;99.90
20081;DHT22;10200;49.232;9.222;2023-02-03T04:14:18;7.20;99.90
20081;DHT22;10200;49.232;9.222;2023-02-03T04:16:43;7.30;99.90
20081;DHT22;10200;49.232;9.222;2023-02-03T04:19:09;7.20;99.90
20081;DHT22;10200;49.232;9.222;2023-02-03T04:21:34;7.30;99.90
20081;DHT22;10200;49.232;9.222;2023-02-03T04:24:00;7.30;99.90
20081;DHT22;10200;49.232;9.222;2023-02-03T04:26:26;7.20;99.90
20081;DHT22;10200;49.232;9.222;2023-02-03T04:28:51;7.20;99.90
20081;DHT22;10200;49.232;9.222;2023-02-03T04:31:17;7.20;99.90
20081;DHT22;10200;49.232;9.222;2023-02-03T04:33:42;7.10;99.90
20081;DHT22;10200;49.232;9.222;2023-02-03T04:36:08;7.00;99.90
20081;DHT22;10200;49.232;9.222;2023-02-03T04:38:34;7.10;99.90
20081;DHT22;10200;49.232;9.222;2023-02-03T04:41:00;7.10;99.90
20081;DHT22;10200;49.232;9.222;2023-02-03T04:43:25;7.10;99.90
20081;DHT22;10200;49.232;9.222;2023-02-03T04:45:51;7.10;99.90
20081;DHT22;10200;49.232;9.222;2023-02-03T04:48:16;7.10;99.90
20081;DHT22;10200;49.232;9.222;2023-02-03T04:50:42;7.00;99.90
20081;DHT22;10200;49.232;9.222;2023-02-03T04:53:07;7.00;99.90
20081;DHT22;10200;49.232;9.222;2023-02-03T04:55:33;7.00;99.90
20081;DHT22;10200;49.232;9.222;2023-02-03T04:57:59;7.00;99.90
20081;DHT22;10200;49.232;9.222;2023-02-03T05:00:26;7.00;99.90
20081;DHT22;10200;49.232;9.222;2023-02-03T05:02:51;7.10;99.90
20081;DHT22;10200;49.232;9.222;2023-02-03T05:05:17;7.00;99.90
20081;DHT22;10200;49.232;9.222;2023-02-03T05:07:43;7.10;99.90
20081;DHT22;10200;49.232;9.222;2023-02-03T05:10:09;7.00;99.90
20081;DHT22;10200;49.232;9.222;2023-02-03T05:12:35;7.10;99.90
20081;DHT22;10200;49.232;9.222;2023-02-03T05:15:00;7.00;99.90
20081;DHT22;10200;49.232;9.222;2023-02-03T05:17:26;7.00;99.90
20081;DHT22;10200;49.232;9.222;2023-02-03T05:19:51;7.00;99.90
20081;DHT22;10200;49.232;9.222;2023-02-03T05:22:17;6.90;99.90
20081;DHT22;10200;49.232;9.222;2023-02-03T05:24:43;7.00;99.90
20081;DHT22;10200;49.232;9.222;2023-02-03T05:27:08;7.00;99.90
20081;DHT22;10200;49.232;9.222;2023-02-03T05:29:34;6.90;99.90
20081;DHT22;10200;49.232;9.222;2023-02-03T05:31:59;7.00;99.90
20081;DHT22;10200;49.232;9.222;2023-02-03T05:34:25;6.90;99.90
20081;DHT22;10200;49.232;9.222;2023-02-03T05:36:51;7.00;99.90
20081;DHT22;10200;49.232;9.222;2023-02-03T05:39:16;7.00;99.90
20081;DHT22;10200;49.232;9.222;2023-02-03T05:41:42;6.90;99.90
20081;DHT22;10200;49.232;9.222;2023-02-03T05:44:22;7.00;99.90
20081;DHT22;10200;49.232;9.222;2023-02-03T05:46:49;7.00;99.90
20081;DHT22;10200;49.232;9.222;2023-02-03T05:49:16;7.00;99.90
20081;DHT22;10200;49.232;9.222;2023-02-03T05:51:42;7.00;99.90
20081;DHT22;10200;49.232;9.222;2023-02-03T05:54:08;7.00;99.90
20081;DHT22;10200;49.232;9.222;2023-02-03T05:56:33;7.00;99.90
20081;DHT22;10200;49.232;9.222;2023-02-03T05:58:59;7.00;99.90
20081;DHT22;10200;49.232;9.222;2023-02-03T06:01:24;7.00;99.90
20081;DHT22;10200;49.232;9.222;2023-02-03T06:03:50;7.00;99.90
20081;DHT22;10200;49.232;9.222;2023-02-03T06:06:16;7.00;99.90
20081;DHT22;10200;49.232;9.222;2023-02-03T06:08:42;7.10;99.90
20081;DHT22;10200;49.232;9.222;2023-02-03T06:11:09;7.10;99.90
20081;DHT22;10200;49.232;9.222;2023-02-03T06:13:35;7.00;99.90
20081;DHT22;10200;49.232;9.222;2023-02-03T06:16:01;7.00;99.90
20081;DHT22;10200;49.232;9.222;2023-02-03T06:18:27;7.00;99.90
20081;DHT22;10200;49.232;9.222;2023-02-03T06:20:52;7.00;99.90
20081;DHT22;10200;49.232;9.222;2023-02-03T06:23:18;7.00;99.90
20081;DHT22;10200;49.232;9.222;2023-02-03T06:25:46;6.90;99.90
20081;DHT22;10200;49.232;9.222;2023-02-03T06:28:12;6.90;99.90
20081;DHT22;10200;49.232;9.222;2023-02-03T06:30:37;6.90;99.90
20081;DHT22;10200;49.232;9.222;2023-02-03T06:33:03;6.90;99.90
20081;DHT22;10200;49.232;9.222;2023-02-03T06:35:29;6.90;99.90
20081;DHT22;10200;49.232;9.222;2023-02-03T06:37:54;6.90;99.90
20081;DHT22;10200;49.232;9.222;2023-02-03T06:40:20;6.90;99.90
20081;DHT22;10200;49.232;9.222;2023-02-03T06:42:46;6.90;99.90
20081;DHT22;10200;49.232;9.222;2023-02-03T06:45:12;6.90;99.90
20081;DHT22;10200;49.232;9.222;2023-02-03T06:47:39;7.00;99.90
20081;DHT22;10200;49.232;9.222;2023-02-03T06:50:05;6.90;99.90
20081;DHT22;10200;49.232;9.222;2023-02-03T06:52:31;7.00;99.90
20081;DHT22;10200;49.232;9.222;2023-02-03T06:54:57;6.90;99.90
20081;DHT22;10200;49.232;9.222;2023-02-03T06:57:22;6.80;99.90
20081;DHT22;10200;49.232;9.222;2023-02-03T06:59:48;6.90;99.90
20081;DHT22;10200;49.232;9.222;2023-02-03T07:02:13;6.90;99.90
20081;DHT22;10200;49.232;9.222;2023-02-03T07:04:39;6.90;99.90
20081;DHT22;10200;49.232;9.222;2023-02-03T07:07:04;7.00;99.90
20081;DHT22;10200;49.232;9.222;2023-02-03T07:09:30;7.00;99.90
20081;DHT22;10200;49.232;9.222;2023-02-03T07:11:56;7.10;99.90
20081;DHT22;10200;49.232;9.222;2023-02-03T07:14:21;7.00;99.90
20081;DHT22;10200;49.232;9.222;2023-02-03T07:16:47;7.00;99.90
20081;DHT22;10200;49.232;9.222;2023-02-03T07:19:12;7.00;99.90
20081;DHT22;10200;49.232;9.222;2023-02-03T07:21:38;7.00;99.90
20081;DHT22;10200;49.232;9.222;2023-02-03T07:24:04;7.00;99.90
20081;DHT22;10200;49.232;9.222;2023-02-03T07:26:29;7.00;99.90
20081;DHT22;10200;49.232;9.222;2023-02-03T07:28:55;7.00;99.90
20081;DHT22;10200;49.232;9.222;2023-02-03T07:31:22;7.00;99.90
20081;DHT22;10200;49.232;9.222;2023-02-03T07:33:48;7.00;99.90
20081;DHT22;10200;49.232;9.222;2023-02-03T07:36:14;7.00;99.90
20081;DHT22;10200;49.232;9.222;2023-02-03T07:38:39;7.00;99.90
20081;DHT22;10200;49.232;9.222;2023-02-03T07:41:05;7.10;99.90
20081;DHT22;10200;49.232;9.222;2023-02-03T07:43:31;7.10;99.90
20081;DHT22;10200;49.232;9.222;2023-02-03T07:45:56;7.10;99.90
20081;DHT22;10200;49.232;9.222;2023-02-03T07:48:22;7.10;99.90
20081;DHT22;10200;49.232;9.222;2023-02-03T07:50:48;7.10;99.90
20081;DHT22;10200;49.232;9.222;2023-02-03T07:53:15;7.10;99.90
20081;DHT22;10200;49.232;9.222;2023-02-03T07:55:41;7.10;99.90
20081;DHT22;10200;49.232;9.222;2023-02-03T07:58:07;7.20;99.90
20081;DHT22;10200;49.232;9.222;2023-02-03T08:00:33;7.20;99.90
20081;DHT22;10200;49.232;9.222;2023-02-03T08:02:58;7.20;99.90
20081;DHT22;10200;49.232;9.222;2023-02-03T08:05:24;7.10;99.90
20081;DHT22;10200;49.232;9.222;2023-02-03T08:07:50;7.20;99.90
20081;DHT22;10200;49.232;9.222;2023-02-03T08:10:15;7.20;99.90
20081;DHT22;10200;49.232;9.222;2023-02-03T08:12:42;7.20;99.90
20081;DHT22;10200;49.232;9.222;2023-02-03T08:15:09;7.20;99.90
20081;DHT22;10200;49.232;9.222;2023-02-03T08:17:35;7.20;99.90
20081;DHT22;10200;49.232;9.222;2023-02-03T08:20:01;7.10;99.90
20081;DHT22;10200;49.232;9.222;2023-02-03T08:22:26;7.20;99.90
20081;DHT22;10200;49.232;9.222;2023-02-03T08:24:52;7.10;99.90
20081;DHT22;10200;49.232;9.222;2023-02-03T08:27:20;7.10;99.90
20081;DHT22;10200;49.232;9.222;2023-02-03T08:29:46;7.10;99.90
20081;DHT22;10200;49.232;9.222;2023-02-03T08:32:17;7.20;99.90
20081;DHT22;10200;49.232;9.222;2023-02-03T08:34:44;7.20;99.90
20081;DHT22;10200;49.232;9.222;2023-02-03T08:37:11;7.10;99.90
20081;DHT22;10200;49.232;9.222;2023-02-03T08:39:37;7.20;99.90
20081;DHT22;10200;49.232;9.222;2023-02-03T08:42:03;7.20;99.90
20081;DHT22;10200;49.232;9.222;2023-02-03T08:44:33;7.20;99.90
20081;DHT22;10200;49.232;9.222;2023-02-03T08:46:59;7.20;99.90
20081;DHT22;10200;49.232;9.222;2023-02-03T08:49:29;7.20;99.90
20081;DHT22;10200;49.232;9.222;2023-02-03T08:51:55;7.20;99.90
20081;DHT22;10200;49.232;9.222;2023-02-03T08:54:22;7.20;99.90
20081;DHT22;10200;49.232;9.222;2023-02-03T08:56:47;7.20;99.90
20081;DHT22;10200;49.232;9.222;2023-02-03T08:59:13;7.20;99.90
20081;DHT22;10200;49.232;9.222;2023-02-03T09:01:40;7.40;99.90
20081;DHT22;10200;49.232;9.222;2023-02-03T09:04:09;7.30;99.90
20081;DHT22;10200;49.232;9.222;2023-02-03T09:06:35;7.30;99.90
20081;DHT22;10200;49.232;9.222;2023-02-03T09:09:01;7.20;99.90
20081;DHT22;10200;49.232;9.222;2023-02-03T09:11:27;7.20;99.90
20081;DHT22;10200;49.232;9.222;2023-02-03T09:13:53;7.20;99.90
20081;DHT22;10200;49.232;9.222;2023-02-03T09:16:19;7.20;99.90
20081;DHT22;10200;49.232;9.222;2023-02-03T09:18:47;7.20;99.90
20081;DHT22;10200;49.232;9.222;2023-02-03T09:21:14;7.40;99.90
20081;DHT22;10200;49.232;9.222;2023-02-03T09:23:41;7.30;99.90
20081;DHT22;10200;49.232;9.222;2023-02-03T09:26:09;7.30;99.90
20081;DHT22;10200;49.232;9.222;2023-02-03T09:28:35;7.30;99.90
20081;DHT22;10200;49.232;9.222;2023-02-03T09:31:06;7.40;99.90
20081;DHT22;10200;49.232;9.222;2023-02-03T09:33:32;7.40;99.90
20081;DHT22;10200;49.232;9.222;2023-02-03T09:35:59;7.40;99.90
20081;DHT22;10200;49.232;9.222;2023-02-03T09:38:25;7.40;99.90
20081;DHT22;10200;49.232;9.222;2023-02-03T09:40:55;7.50;99.90
20081;DHT22;10200;49.232;9.222;2023-02-03T09:43:46;7.50;99.90
20081;DHT22;10200;49.232;9.222;2023-02-03T09:48:52;7.70;99.90
20081;DHT22;10200;49.232;9.222;2023-02-03T09:51:23;7.80;99.90
20081;DHT22;10200;49.232;9.222;2023-02-03T09:54:04;7.90;99.90
20081;DHT22;10200;49.232;9.222;2023-02-03T09:56:35;7.90;99.90
20081;DHT22;10200;49.232;9.222;2023-02-03T09:59:02;7.90;99.90
20081;DHT22;10200;49.232;9.222;2023-02-03T10:01:37;7.90;99.90
20081;DHT22;10200;49.232;9.222;2023-02-03T10:07:33;8.10;99.90
20081;DHT22;10200;49.232;9.222;2023-02-03T10:10:21;8.00;99.90
20081;DHT22;10200;49.232;9.222;2023-02-03T10:18:17;8.10;99.90
20081;DHT22;10200;49.232;9.222;2023-02-03T10:23:34;8.10;99.90
20081;DHT22;10200;49.232;9.222;2023-02-03T10:26:04;8.00;99.90
20081;DHT22;10200;49.232;9.222;2023-02-03T10:28:36;8.00;99.90
20081;DHT22;10200;49.232;9.222;2023-02-03T10:31:13;8.00;99.90
20081;DHT22;10200;49.232;9.222;2023-02-03T10:33:41;8.00;99.90
20081;DHT22;10200;49.232;9.222;2023-02-03T10:38:40;8.10;99.90
20081;DHT22;10200;49.232;9.222;2023-02-03T10:41:08;8.20;99.90
20081;DHT22;10200;49.232;9.222;2023-02-03T10:43:34;8.10;99.90
20081;DHT22;10200;49.232;9.222;2023-02-03T10:46:16;8.20;99.90
20081;DHT22;10200;49.232;9.222;2023-02-03T10:48:42;8.10;99.90
20081;DHT22;10200;49.232;9.222;2023-02-03T10:51:24;8.20;99.90
20081;DHT22;10200;49.232;9.222;2023-02-03T10:53:51;8.20;99.90
20081;DHT22;10200;49.232;9.222;2023-02-03T10:56:40;8.10;99.90
20081;DHT22;10200;49.232;9.222;2023-02-03T10:59:05;8.10;99.90
20081;DHT22;10200;49.232;9.222;2023-02-03T11:01:43;8.00;99.90
20081;DHT22;10200;49.232;9.222;2023-02-03T11:04:29;7.90;99.90
20081;DHT22;10200;49.232;9.222;2023-02-03T11:07:04;7.80;99.90
20081;DHT22;10200;49.232;9.222;2023-02-03T11:09:40;7.90;99.90
20081;DHT22;10200;49.232;9.222;2023-02-03T11:14:50;7.80;99.90
20081;DHT22;10200;49.232;9.222;2023-02-03T11:17:17;7.70;99.90
20081;DHT22;10200;49.232;9.222;2023-02-03T11:19:47;7.70;99.90
20081;DHT22;10200;49.232;9.222;2023-02-03T11:22:27;7.60;99.90
20081;DHT22;10200;49.232;9.222;2023-02-03T11:24:53;7.60;99.90
20081;DHT22;10200;49.232;9.222;2023-02-03T11:27:19;7.60;99.90
20081;DHT22;10200;49.232;9.222;2023-02-03T11:29:48;7.60;99.90
20081;DHT22;10200;49.232;9.222;2023-02-03T11:32:23;7.60;99.90
20081;DHT22;10200;49.232;9.222;2023-02-03T11:35:02;7.60;99.90
20081;DHT22;10200;49.232;9.222;2023-02-03T11:37:32;7.60;99.90
20081;DHT22;10200;49.232;9.222;2023-02-03T11:42:34;7.60;99.90
20081;DHT22;10200;49.232;9.222;2023-02-03T11:48:00;7.60;99.90
20081;DHT22;10200;49.232;9.222;2023-02-03T11:50:35;7.60;99.90
20081;DHT22;10200;49.232;9.222;2023-02-03T11:53:23;7.60;99.90
20081;DHT22;10200;49.232;9.222;2023-02-03T12:18:44;7.60;99.90
20081;DHT22;10200;49.232;9.222;2023-02-03T12:24:01;7.70;99.90
20081;DHT22;10200;49.232;9.222;2023-02-03T12:26:45;7.70;99.90
20081;DHT22;10200;49.232;9.222;2023-02-03T12:29:24;7.70;99.90
20081;DHT22;10200;49.232;9.222;2023-02-03T12:34:52;7.90;99.90
20081;DHT22;10200;49.232;9.222;2023-02-03T12:37:24;7.90;99.90
20081;DHT22;10200;49.232;9.222;2023-02-03T12:40:13;8.00;99.90
20081;DHT22;10200;49.232;9.222;2023-02-03T12:42:45;8.00;99.90
20081;DHT22;10200;49.232;9.222;2023-02-03T12:45:20;8.10;99.90
20081;DHT22;10200;49.232;9.222;2023-02-03T12:47:57;8.00;99.90
20081;DHT22;10200;49.232;9.222;2023-02-03T12:50:34;8.00;99.90
20081;DHT22;10200;49.232;9.222;2023-02-03T12:53:11;8.00;99.90
20081;DHT22;10200;49.232;9.222;2023-02-03T12:55:45;8.00;99.90
20081;DHT22;10200;49.232;9.222;2023-02-03T12:58:22;8.00;99.90
20081;DHT22;10200;49.232;9.222;2023-02-03T13:01:15;8.00;99.90
20081;DHT22;10200;49.232;9.222;2023-02-03T13:06:52;8.00;99.90
20081;DHT22;10200;49.232;9.222;2023-02-03T13:09:32;8.00;99.90
20081;DHT22;10200;49.232;9.222;2023-02-03T13:14:53;8.00;99.90
20081;DHT22;10200;49.232;9.222;2023-02-03T13:17:28;8.00;99.90
20081;DHT22;10200;49.232;9.222;2023-02-03T13:19:58;8.00;99.90
20081;DHT22;10200;49.232;9.222;2023-02-03T13:22:24;8.10;99.90
20081;DHT22;10200;49.232;9.222;2023-02-03T13:25:30;8.00;99.90
20081;DHT22;10200;49.232;9.222;2023-02-03T13:33:43;8.00;99.90
20081;DHT22;10200;49.232;9.222;2023-02-03T13:44:30;8.00;99.90
20081;DHT22;10200;49.232;9.222;2023-02-03T13:46:56;8.00;99.90
20081;DHT22;10200;49.232;9.222;2023-02-03T13:49:29;8.00;99.90
20081;DHT22;10200;49.232;9.222;2023-02-03T13:51:55;8.00;99.90
20081;DHT22;10200;49.232;9.222;2023-02-03T13:54:24;8.10;99.90
20081;DHT22;10200;49.232;9.222;2023-02-03T13:56:59;8.10;99.90
20081;DHT22;10200;49.232;9.222;2023-02-03T13:59:40;8.10;99.90
20081;DHT22;10200;49.232;9.222;2023-02-03T14:15:42;8.20;99.90
20081;DHT22;10200;49.232;9.222;2023-02-03T14:20:49;8.20;99.90
20081;DHT22;10200;49.232;9.222;2023-02-03T14:23:24;8.30;99.90
20081;DHT22;10200;49.232;9.222;2023-02-03T14:25:54;8.30;99.90
20081;DHT22;10200;49.232;9.222;2023-02-03T14:28:25;8.20;99.90
20081;DHT22;10200;49.232;9.222;2023-02-03T14:31:17;8.30;99.90
20081;DHT22;10200;49.232;9.222;2023-02-03T14:33:49;8.30;99.90
20081;DHT22;10200;49.232;9.222;2023-02-03T14:36:33;8.30;99.90
20081;DHT22;10200;49.232;9.222;2023-02-03T14:39:35;8.30;99.90
20081;DHT22;10200;49.232;9.222;2023-02-03T14:42:11;8.30;99.90
20081;DHT22;10200;49.232;9.222;2023-02-03T14:44:48;8.30;99.90
20081;DHT22;10200;49.232;9.222;2023-02-03T14:53:14;8.30;99.90
20081;DHT22;10200;49.232;9.222;2023-02-03T14:56:23;8.30;99.90
20081;DHT22;10200;49.232;9.222;2023-02-03T14:58:54;8.40;99.90
20081;DHT22;10200;49.232;9.222;2023-02-03T15:06:39;8.30;99.90
20081;DHT22;10200;49.232;9.222;2023-02-03T15:11:52;8.40;99.90
20081;DHT22;10200;49.232;9.222;2023-02-03T15:14:22;8.40;99.90
20081;DHT22;10200;49.232;9.222;2023-02-03T15:17:03;8.40;99.90
20081;DHT22;10200;49.232;9.222;2023-02-03T15:19:38;8.40;99.90
20081;DHT22;10200;49.232;9.222;2023-02-03T15:24:42;8.30;99.90
20081;DHT22;10200;49.232;9.222;2023-02-03T15:27:22;8.30;99.90
20081;DHT22;10200;49.232;9.222;2023-02-03T15:29:48;8.30;99.90
20081;DHT22;10200;49.232;9.222;2023-02-03T15:32:37;8.30;99.90
20081;DHT22;10200;49.232;9.222;2023-02-03T15:35:08;8.40;99.90
20081;DHT22;10200;49.232;9.222;2023-02-03T15:37:55;8.30;99.90
20081;DHT22;10200;49.232;9.222;2023-02-03T15:40:29;8.30;99.90
20081;DHT22;10200;49.232;9.222;2023-02-03T15:43:08;8.20;99.90
20081;DHT22;10200;49.232;9.222;2023-02-03T15:48:24;8.30;99.90
20081;DHT22;10200;49.232;9.222;2023-02-03T15:53:31;8.20;99.90
20081;DHT22;10200;49.232;9.222;2023-02-03T15:56:00;8.30;99.90
20081;DHT22;10200;49.232;9.222;2023-02-03T15:58:33;8.30;99.90
20081;DHT22;10200;49.232;9.222;2023-02-03T16:01:07;8.30;99.90
20081;DHT22;10200;49.232;9.222;2023-02-03T16:08:42;8.20;99.90
20081;DHT22;10200;49.232;9.222;2023-02-03T16:11:21;8.20;99.90
20081;DHT22;10200;49.232;9.222;2023-02-03T16:13:50;8.20;99.90
20081;DHT22;10200;49.232;9.222;2023-02-03T16:19:20;8.20;99.90
20081;DHT22;10200;49.232;9.222;2023-02-03T16:33:04;8.20;99.90
20081;DHT22;10200;49.232;9.222;2023-02-03T16:35:59;8.20;99.90
20081;DHT22;10200;49.232;9.222;2023-02-03T16:38:45;8.20;99.90
20081;DHT22;10200;49.232;9.222;2023-02-03T16:41:30;8.20;99.90
20081;DHT22;10200;49.232;9.222;2023-02-03T16:44:14;8.20;99.90
20081;DHT22;10200;49.232;9.222;2023-02-03T16:46:59;8.20;99.90
20081;DHT22;10200;49.232;9.222;2023-02-03T16:49:43;8.20;99.90
20081;DHT22;10200;49.232;9.222;2023-02-03T16:52:27;8.20;99.90
20081;DHT22;10200;49.232;9.222;2023-02-03T16:54:53;8.20;99.90
20081;DHT22;10200;49.232;9.222;2023-02-03T16:57:18;8.20;99.90
20081;DHT22;10200;49.232;9.222;2023-02-03T16:59:44;8.20;99.90
20081;DHT22;10200;49.232;9.222;2023-02-03T17:02:10;8.20;99.90
20081;DHT22;10200;49.232;9.222;2023-02-03T17:04:35;8.20;99.90
20081;DHT22;10200;49.232;9.222;2023-02-03T17:07:01;8.20;99.90
20081;DHT22;10200;49.232;9.222;2023-02-03T17:09:30;8.20;99.90
20081;DHT22;10200;49.232;9.222;2023-02-03T17:11:59;8.20;99.90
20081;DHT22;10200;49.232;9.222;2023-02-03T17:14:25;8.20;99.90
20081;DHT22;10200;49.232;9.222;2023-02-03T17:16:51;8.20;99.90
20081;DHT22;10200;49.232;9.222;2023-02-03T17:19:17;8.20;99.90
20081;DHT22;10200;49.232;9.222;2023-02-03T17:21:42;8.20;99.90
20081;DHT22;10200;49.232;9.222;2023-02-03T17:24:08;8.20;99.90
20081;DHT22;10200;49.232;9.222;2023-02-03T17:26:34;8.30;99.90
20081;DHT22;10200;49.232;9.222;2023-02-03T17:28:59;8.20;99.90
20081;DHT22;10200;49.232;9.222;2023-02-03T17:31:27;8.30;99.90
20081;DHT22;10200;49.232;9.222;2023-02-03T17:33:53;8.20;99.90
20081;DHT22;10200;49.232;9.222;2023-02-03T17:36:20;8.30;99.90
20081;DHT22;10200;49.232;9.222;2023-02-03T17:38:52;8.30;99.90
20081;DHT22;10200;49.232;9.222;2023-02-03T17:41:23;8.30;99.90
20081;DHT22;10200;49.232;9.222;2023-02-03T17:43:50;8.30;99.90
20081;DHT22;10200;49.232;9.222;2023-02-03T17:46:18;8.30;99.90
20081;DHT22;10200;49.232;9.222;2023-02-03T17:48:45;8.30;99.90
20081;DHT22;10200;49.232;9.222;2023-02-03T17:51:15;8.30;99.90
20081;DHT22;10200;49.232;9.222;2023-02-03T17:53:45;8.30;99.90
20081;DHT22;10200;49.232;9.222;2023-02-03T17:56:19;8.30;99.90
20081;DHT22;10200;49.232;9.222;2023-02-03T17:58:46;8.30;99.90
20081;DHT22;10200;49.232;9.222;2023-02-03T18:01:16;8.30;99.90
20081;DHT22;10200;49.232;9.222;2023-02-03T18:03:51;8.30;99.90
20081;DHT22;10200;49.232;9.222;2023-02-03T18:06:19;8.30;99.90
20081;DHT22;10200;49.232;9.222;2023-02-03T18:08:46;8.30;99.90
20081;DHT22;10200;49.232;9.222;2023-02-03T18:11:12;8.20;99.90
20081;DHT22;10200;49.232;9.222;2023-02-03T18:13:41;8.20;99.90
20081;DHT22;10200;49.232;9.222;2023-02-03T18:16:13;8.20;99.90
20081;DHT22;10200;49.232;9.222;2023-02-03T18:18:40;8.20;99.90
20081;DHT22;10200;49.232;9.222;2023-02-03T18:21:08;8.30;99.90
20081;DHT22;10200;49.232;9.222;2023-02-03T18:23:37;8.20;99.90
20081;DHT22;10200;49.232;9.222;2023-02-03T18:26:03;8.20;99.90
20081;DHT22;10200;49.232;9.222;2023-02-03T18:28:29;8.20;99.90
20081;DHT22;10200;49.232;9.222;2023-02-03T18:30:59;8.20;99.90
20081;DHT22;10200;49.232;9.222;2023-02-03T18:33:27;8.20;99.90
20081;DHT22;10200;49.232;9.222;2023-02-03T18:35:54;8.20;99.90